Time;durP1;ratioP1;P1;durP2;ratioP2;P2;SDS_P1;SDS_P2;PMS_P1;PMS_P2;Temp;Humidity;BMP_temperature;BMP_pressure;BME280_temperature;BME280_humidity;BME280_pressure;Samples;Min_cycle;Max_cycle;Signal;HPM_P1;HPM_P2
2022/03/19 00:01:06;;;;;;;11.75;7.43;;;;;;;;;;4986031;28;20315;-50
2022/03/19 00:03:33;;;;;;;11.75;7.55;;;;;;;;;;4987440;28;20469;-50
2022/03/19 00:05:59;;;;;;;12.23;7.90;;;;;;;;;;4985871;28;20030;-49
2022/03/19 00:08:26;;;;;;;12.40;7.93;;;;;;;;;;4986006;28;20116;-49
2022/03/19 00:10:53;;;;;;;13.43;8.43;;;;;;;;;;4986600;28;20081;-49
2022/03/19 00:13:21;;;;;;;14.93;10.88;;;;;;;;;;4986368;28;20026;-48
2022/03/19 00:15:47;;;;;;;14.52;10.13;;;;;;;;;;4985808;28;20072;-48
2022/03/19 00:18:13;;;;;;;13.57;9.32;;;;;;;;;;4968839;28;20030;-51
2022/03/19 00:20:40;;;;;;;12.48;9.65;;;;;;;;;;4986727;28;20056;-51
2022/03/19 00:23:06;;;;;;;13.75;9.45;;;;;;;;;;4986496;28;20022;-51
2022/03/19 00:25:32;;;;;;;12.02;8.52;;;;;;;;;;4967657;28;20026;-50
2022/03/19 00:27:59;;;;;;;12.13;8.10;;;;;;;;;;4985248;28;20038;-50
2022/03/19 00:30:26;;;;;;;13.00;8.68;;;;;;;;;;4985726;28;20091;-50
2022/03/19 00:32:52;;;;;;;10.38;7.68;;;;;;;;;;4986384;28;20030;-50
2022/03/19 00:35:19;;;;;;;12.48;7.88;;;;;;;;;;4984955;28;20497;-52
2022/03/19 00:37:46;;;;;;;11.30;7.78;;;;;;;;;;4986036;28;20031;-51
2022/03/19 00:40:14;;;;;;;11.38;8.15;;;;;;;;;;4986180;28;20093;-50
2022/03/19 00:42:41;;;;;;;14.93;8.25;;;;;;;;;;4985552;28;20034;-50
2022/03/19 00:45:07;;;;;;;12.65;8.38;;;;;;;;;;4984753;28;20034;-49
2022/03/19 00:47:34;;;;;;;12.25;8.30;;;;;;;;;;4986424;28;20037;-51
2022/03/19 00:50:01;;;;;;;13.60;8.68;;;;;;;;;;4985975;28;20082;-48
2022/03/19 00:52:27;;;;;;;12.93;8.15;;;;;;;;;;4985449;28;20497;-49
2022/03/19 00:54:53;;;;;;;13.30;8.57;;;;;;;;;;4967756;28;20112;-48
2022/03/19 00:57:20;;;;;;;12.65;8.05;;;;;;;;;;4985556;28;20549;-48
2022/03/19 00:59:47;;;;;;;13.88;8.48;;;;;;;;;;4985473;28;20065;-48
2022/03/19 01:02:13;;;;;;;11.63;8.38;;;;;;;;;;4990806;28;20023;-49
2022/03/19 01:04:39;;;;;;;15.57;10.70;;;;;;;;;;4997727;28;20038;-49
2022/03/19 01:07:05;;;;;;;14.02;8.30;;;;;;;;;;4975760;28;20046;-49
2022/03/19 01:09:31;;;;;;;13.50;9.00;;;;;;;;;;4965460;28;20447;-50
2022/03/19 01:11:58;;;;;;;13.40;8.18;;;;;;;;;;4966044;28;20426;-50
2022/03/19 01:14:24;;;;;;;14.25;9.60;;;;;;;;;;4968933;28;20045;-49
2022/03/19 01:16:50;;;;;;;14.80;9.45;;;;;;;;;;4985300;28;20502;-48
2022/03/19 01:19:52;;;;;;;13.77;9.00;;;;;;;;;;4984854;28;20023;-48
2022/03/19 01:22:02;;;;;;;14.15;9.30;;;;;;;;;;4985741;28;20495;-48
2022/03/19 01:24:28;;;;;;;16.67;10.57;;;;;;;;;;4983358;28;20045;-50
2022/03/19 01:26:55;;;;;;;19.17;10.75;;;;;;;;;;4985289;28;20105;-50
2022/03/19 01:29:21;;;;;;;16.05;10.50;;;;;;;;;;4984928;28;20070;-48
2022/03/19 01:31:47;;;;;;;18.92;11.68;;;;;;;;;;4985225;28;20486;-47
2022/03/19 01:34:14;;;;;;;17.33;11.43;;;;;;;;;;4967392;28;20026;-49
2022/03/19 01:36:41;;;;;;;18.98;11.63;;;;;;;;;;4984789;28;20022;-49
2022/03/19 01:39:07;;;;;;;18.88;11.73;;;;;;;;;;4984909;28;20453;-49
2022/03/19 01:41:39;;;;;;;16.92;11.13;;;;;;;;;;4985591;28;20066;-50
2022/03/19 01:44:06;;;;;;;15.50;10.50;;;;;;;;;;4984943;28;20101;-49
2022/03/19 01:46:52;;;;;;;16.10;10.68;;;;;;;;;;4985211;28;20023;-50
2022/03/19 01:49:18;;;;;;;16.77;9.85;;;;;;;;;;4984766;28;20061;-51
2022/03/19 01:51:45;;;;;;;14.27;9.77;;;;;;;;;;4984208;28;20057;-49
2022/03/19 01:54:11;;;;;;;17.90;10.68;;;;;;;;;;4982125;28;20037;-50
2022/03/19 01:56:38;;;;;;;17.40;10.18;;;;;;;;;;4985192;28;20057;-50
2022/03/19 01:59:04;;;;;;;13.60;8.32;;;;;;;;;;4982936;28;20386;-49
2022/03/19 02:01:31;;;;;;;13.48;9.02;;;;;;;;;;4979781;28;20019;-49
2022/03/19 02:03:58;;;;;;;14.15;9.25;;;;;;;;;;4983101;28;20050;-48
2022/03/19 02:06:26;;;;;;;13.15;8.57;;;;;;;;;;4979148;28;20100;-51
2022/03/19 02:08:52;;;;;;;14.77;9.27;;;;;;;;;;4986889;28;20395;-49
2022/03/19 02:11:18;;;;;;;14.02;9.30;;;;;;;;;;4986631;28;20030;-52
2022/03/19 02:13:44;;;;;;;12.70;8.32;;;;;;;;;;4987535;28;20033;-49
2022/03/19 02:16:11;;;;;;;13.75;8.82;;;;;;;;;;4986074;28;20034;-48
2022/03/19 02:18:37;;;;;;;14.02;9.38;;;;;;;;;;4986630;28;20433;-52
2022/03/19 02:21:03;;;;;;;14.82;9.85;;;;;;;;;;4986647;28;20552;-48
2022/03/19 02:26:14;;;;;;;15.20;8.75;;;;;;;;;;4986706;28;20561;-51
2022/03/19 02:28:40;;;;;;;15.77;9.10;;;;;;;;;;4986473;28;20034;-48
2022/03/19 02:31:06;;;;;;;15.15;9.40;;;;;;;;;;4986649;28;20026;-48
2022/03/19 02:33:32;;;;;;;12.55;8.48;;;;;;;;;;4986581;28;20037;-50
2022/03/19 02:35:58;;;;;;;13.50;9.27;;;;;;;;;;4985868;28;20480;-49
2022/03/19 02:38:24;;;;;;;14.65;9.75;;;;;;;;;;4986213;28;20706;-50
2022/03/19 02:40:50;;;;;;;14.65;9.77;;;;;;;;;;4986563;28;20403;-49
2022/03/19 02:43:16;;;;;;;13.75;8.82;;;;;;;;;;4986763;28;20504;-49
2022/03/19 02:45:46;;;;;;;15.40;9.55;;;;;;;;;;4985303;28;20038;-50
2022/03/19 02:48:12;;;;;;;14.45;9.10;;;;;;;;;;4986480;28;20057;-51
2022/03/19 02:50:38;;;;;;;14.77;9.27;;;;;;;;;;4986082;28;20205;-48
2022/03/19 02:53:06;;;;;;;14.05;8.60;;;;;;;;;;4988379;28;20031;-50
2022/03/19 02:55:36;;;;;;;14.05;9.77;;;;;;;;;;4988963;28;20034;-49
2022/03/19 02:58:02;;;;;;;15.68;9.63;;;;;;;;;;4990279;28;20034;-47
2022/03/19 03:00:28;;;;;;;14.40;9.68;;;;;;;;;;4989910;28;20038;-47
2022/03/19 03:02:55;;;;;;;16.80;9.70;;;;;;;;;;4989623;28;20215;-48
2022/03/19 03:05:21;;;;;;;15.02;10.13;;;;;;;;;;4989494;28;20034;-47
2022/03/19 03:07:47;;;;;;;13.38;9.07;;;;;;;;;;4990019;28;20064;-51
2022/03/19 03:10:15;;;;;;;15.20;10.27;;;;;;;;;;4987703;28;20058;-47
2022/03/19 03:12:42;;;;;;;17.50;11.00;;;;;;;;;;4989930;28;20038;-47
2022/03/19 03:15:09;;;;;;;16.65;11.20;;;;;;;;;;4989975;28;20717;-48
2022/03/19 03:17:35;;;;;;;16.35;10.88;;;;;;;;;;4989539;28;20507;-50
2022/03/19 03:20:02;;;;;;;15.90;10.48;;;;;;;;;;4980870;28;20077;-48
2022/03/19 03:22:29;;;;;;;16.25;10.80;;;;;;;;;;4989534;28;20041;-49
2022/03/19 03:24:55;;;;;;;17.13;10.70;;;;;;;;;;4989608;28;20061;-49
2022/03/19 03:27:21;;;;;;;17.25;10.82;;;;;;;;;;4989440;28;20061;-48
2022/03/19 03:29:47;;;;;;;15.45;10.70;;;;;;;;;;4985998;28;20571;-49
2022/03/19 03:32:13;;;;;;;15.77;10.43;;;;;;;;;;4970761;28;20035;-50
2022/03/19 03:34:41;;;;;;;15.55;10.35;;;;;;;;;;4969816;28;20057;-50
2022/03/19 03:37:07;;;;;;;15.98;10.55;;;;;;;;;;4970191;28;20023;-50
2022/03/19 03:39:33;;;;;;;16.10;10.05;;;;;;;;;;4970837;28;20055;-50
2022/03/19 03:41:59;;;;;;;15.40;9.82;;;;;;;;;;4989104;28;20022;-51
2022/03/19 03:44:26;;;;;;;18.05;10.65;;;;;;;;;;4988896;28;20510;-51
2022/03/19 03:46:52;;;;;;;15.32;10.00;;;;;;;;;;4987947;28;20633;-49
2022/03/19 03:49:18;;;;;;;14.52;9.77;;;;;;;;;;4989403;28;20041;-48
2022/03/19 03:51:44;;;;;;;15.60;10.73;;;;;;;;;;4988802;28;20038;-49
2022/03/19 03:54:11;;;;;;;16.70;10.15;;;;;;;;;;4989102;28;20031;-50
2022/03/19 03:56:37;;;;;;;16.10;10.00;;;;;;;;;;4988820;28;20037;-51
2022/03/19 03:59:04;;;;;;;14.32;10.25;;;;;;;;;;4988763;28;20029;-50
2022/03/19 04:01:30;;;;;;;15.00;9.68;;;;;;;;;;4987701;28;20030;-48
2022/03/19 04:03:56;;;;;;;15.32;10.60;;;;;;;;;;4988382;28;20490;-47
2022/03/19 04:06:22;;;;;;;15.18;9.77;;;;;;;;;;4988498;28;20030;-48
2022/03/19 04:08:48;;;;;;;16.95;10.38;;;;;;;;;;4988553;28;20022;-50
2022/03/19 04:11:14;;;;;;;17.63;10.43;;;;;;;;;;4988150;28;20441;-50
2022/03/19 04:13:40;;;;;;;17.40;11.25;;;;;;;;;;4987599;28;20129;-51
2022/03/19 04:16:06;;;;;;;17.27;10.80;;;;;;;;;;4987551;28;20061;-49
2022/03/19 04:18:32;;;;;;;17.15;10.75;;;;;;;;;;4987295;28;20514;-48
2022/03/19 04:20:58;;;;;;;19.13;11.20;;;;;;;;;;4987001;28;20514;-46
2022/03/19 04:23:24;;;;;;;16.30;11.43;;;;;;;;;;4987435;28;20120;-48
2022/03/19 04:25:50;;;;;;;15.00;10.55;;;;;;;;;;4988860;28;20406;-49
2022/03/19 04:28:17;;;;;;;16.02;10.10;;;;;;;;;;4989070;28;20508;-48
2022/03/19 04:30:44;;;;;;;16.67;11.00;;;;;;;;;;4969741;28;20030;-51
2022/03/19 04:33:10;;;;;;;15.25;10.23;;;;;;;;;;4988566;28;20772;-47
2022/03/19 04:38:22;;;;;;;14.80;10.48;;;;;;;;;;4968946;28;20042;-50
2022/03/19 04:40:49;;;;;;;18.85;12.05;;;;;;;;;;4969390;28;20074;-51
2022/03/19 04:43:15;;;;;;;17.25;10.90;;;;;;;;;;4969379;28;20054;-50
2022/03/19 04:45:42;;;;;;;17.58;11.35;;;;;;;;;;4983591;28;20038;-50
2022/03/19 04:48:08;;;;;;;17.67;11.50;;;;;;;;;;4987516;28;20053;-50
2022/03/19 04:50:38;;;;;;;16.25;11.07;;;;;;;;;;4987633;28;20108;-51
2022/03/19 04:53:05;;;;;;;18.85;11.20;;;;;;;;;;4987686;28;20571;-47
2022/03/19 04:55:31;;;;;;;18.23;11.82;;;;;;;;;;4986683;28;20441;-51
2022/03/19 04:57:57;;;;;;;17.27;11.98;;;;;;;;;;4988088;28;20022;-49
2022/03/19 05:00:25;;;;;;;17.27;12.15;;;;;;;;;;4987525;28;20065;-49
2022/03/19 05:02:51;;;;;;;18.45;11.07;;;;;;;;;;4987893;28;20029;-49
2022/03/19 05:05:18;;;;;;;16.27;11.02;;;;;;;;;;4986955;28;20112;-49
2022/03/19 05:07:44;;;;;;;16.48;10.90;;;;;;;;;;4988439;28;20027;-51
2022/03/19 05:12:56;;;;;;;19.58;12.38;;;;;;;;;;4987242;28;20100;-50
2022/03/19 05:15:22;;;;;;;23.55;14.82;;;;;;;;;;4975757;28;20092;-49
2022/03/19 05:17:48;;;;;;;22.95;14.73;;;;;;;;;;4968972;28;20023;-49
2022/03/19 05:20:14;;;;;;;18.75;12.57;;;;;;;;;;4968417;28;20081;-48
2022/03/19 05:22:40;;;;;;;18.60;12.02;;;;;;;;;;4968035;28;20124;-51
2022/03/19 05:25:07;;;;;;;19.25;11.90;;;;;;;;;;4983217;28;20030;-51
2022/03/19 05:27:33;;;;;;;17.90;12.02;;;;;;;;;;4987169;28;20030;-50
2022/03/19 05:29:59;;;;;;;17.38;11.60;;;;;;;;;;4987283;28;20100;-49
2022/03/19 05:32:25;;;;;;;15.85;11.23;;;;;;;;;;4987259;28;20472;-50
2022/03/19 05:34:52;;;;;;;18.77;12.35;;;;;;;;;;4985728;28;20038;-49
2022/03/19 05:37:18;;;;;;;16.05;11.57;;;;;;;;;;4986990;28;20536;-51
2022/03/19 05:39:44;;;;;;;20.85;13.27;;;;;;;;;;4987730;28;20076;-50
2022/03/19 05:42:11;;;;;;;19.58;12.73;;;;;;;;;;4987604;28;20054;-49
2022/03/19 05:44:38;;;;;;;20.33;12.95;;;;;;;;;;4986983;28;20129;-50
2022/03/19 05:47:04;;;;;;;22.10;13.50;;;;;;;;;;4982353;28;20085;-51
2022/03/19 05:49:30;;;;;;;21.40;13.60;;;;;;;;;;4967293;28;20030;-51
2022/03/19 05:51:57;;;;;;;21.75;14.05;;;;;;;;;;4967517;28;20058;-51
2022/03/19 05:54:24;;;;;;;25.33;14.73;;;;;;;;;;4967418;28;20089;-51
2022/03/19 05:56:51;;;;;;;21.83;14.07;;;;;;;;;;4977455;28;20032;-51
2022/03/19 05:59:19;;;;;;;22.40;13.70;;;;;;;;;;4987397;28;20030;-51
2022/03/19 06:01:45;;;;;;;20.42;13.18;;;;;;;;;;4987492;28;20457;-50
2022/03/19 06:04:11;;;;;;;18.25;12.10;;;;;;;;;;4986797;28;20534;-50
2022/03/19 06:06:37;;;;;;;22.58;14.40;;;;;;;;;;4986792;28;20688;-50
2022/03/19 06:09:04;;;;;;;21.98;13.63;;;;;;;;;;4986041;28;20100;-51
2022/03/19 06:11:30;;;;;;;22.45;13.50;;;;;;;;;;4986691;28;20093;-47
2022/03/19 06:13:56;;;;;;;19.85;13.18;;;;;;;;;;4987047;28;20026;-47
2022/03/19 06:16:22;;;;;;;21.77;13.55;;;;;;;;;;4986532;28;20061;-51
2022/03/19 06:18:50;;;;;;;18.83;12.20;;;;;;;;;;4975038;28;20023;-50
2022/03/19 06:21:17;;;;;;;22.15;14.18;;;;;;;;;;4967710;28;20080;-49
2022/03/19 06:23:45;;;;;;;21.73;14.50;;;;;;;;;;4967416;28;20478;-48
2022/03/19 06:26:11;;;;;;;22.60;14.55;;;;;;;;;;4969537;28;20630;-50
2022/03/19 06:28:37;;;;;;;24.60;15.15;;;;;;;;;;4982743;28;20034;-48
2022/03/19 06:31:03;;;;;;;22.45;14.65;;;;;;;;;;4989538;28;20034;-51
2022/03/19 06:33:29;;;;;;;22.42;14.35;;;;;;;;;;4990041;28;20042;-48
2022/03/19 06:38:40;;;;;;;23.38;14.27;;;;;;;;;;4990752;28;20037;-50
2022/03/19 06:41:06;;;;;;;23.85;15.40;;;;;;;;;;4989754;28;20041;-52
2022/03/19 06:43:32;;;;;;;22.65;14.60;;;;;;;;;;4971910;28;20041;-50
2022/03/19 06:45:59;;;;;;;22.63;13.98;;;;;;;;;;4970962;28;20154;-50
2022/03/19 06:48:28;;;;;;;24.67;14.68;;;;;;;;;;4970229;28;20434;-51
2022/03/19 06:50:54;;;;;;;22.88;15.05;;;;;;;;;;4970910;28;20105;-48
2022/03/19 06:53:21;;;;;;;23.73;14.70;;;;;;;;;;4985572;28;20034;-51
2022/03/19 06:55:47;;;;;;;22.83;14.32;;;;;;;;;;4990596;28;20030;-49
2022/03/19 06:58:13;;;;;;;23.33;13.63;;;;;;;;;;4990496;28;20023;-51
2022/03/19 07:00:40;;;;;;;21.10;13.95;;;;;;;;;;4974990;28;20138;-51
2022/03/19 07:03:06;;;;;;;21.92;13.80;;;;;;;;;;4970536;28;20023;-50
2022/03/19 07:05:32;;;;;;;21.00;14.00;;;;;;;;;;4970377;28;20097;-53
2022/03/19 07:07:59;;;;;;;24.70;13.75;;;;;;;;;;4970502;28;20033;-53
2022/03/19 07:10:25;;;;;;;23.02;14.90;;;;;;;;;;4970239;28;20035;-53
2022/03/19 07:12:55;;;;;;;22.05;14.25;;;;;;;;;;4985713;28;20080;-51
2022/03/19 07:15:28;;;;;;;19.92;13.40;;;;;;;;;;4989698;28;20034;-53
2022/03/19 07:17:54;;;;;;;21.30;14.13;;;;;;;;;;4989195;28;20034;-51
2022/03/19 07:20:20;;;;;;;24.58;14.93;;;;;;;;;;4988661;28;20534;-50
2022/03/19 07:22:54;;;;;;;23.38;15.07;;;;;;;;;;4978541;28;20034;-52
2022/03/19 07:25:21;;;;;;;24.98;15.27;;;;;;;;;;4969994;28;20102;-50
2022/03/19 07:27:47;;;;;;;26.40;15.88;;;;;;;;;;4977830;28;20046;-49
2022/03/19 07:30:13;;;;;;;22.67;14.85;;;;;;;;;;4989840;28;20366;-49
2022/03/19 07:32:40;;;;;;;25.08;15.25;;;;;;;;;;4988597;28;20033;-50
2022/03/19 07:35:06;;;;;;;24.02;15.50;;;;;;;;;;4972050;28;20032;-50
2022/03/19 07:37:33;;;;;;;21.30;14.40;;;;;;;;;;4987238;28;20073;-53
2022/03/19 07:40:00;;;;;;;21.05;14.35;;;;;;;;;;4987555;28;20401;-50
2022/03/19 07:42:26;;;;;;;21.25;13.48;;;;;;;;;;4988536;28;20378;-51
2022/03/19 07:44:52;;;;;;;21.85;13.50;;;;;;;;;;4989295;28;20496;-50
2022/03/19 07:47:18;;;;;;;21.35;14.05;;;;;;;;;;4976205;28;20036;-50
2022/03/19 07:49:44;;;;;;;20.95;13.38;;;;;;;;;;4970415;28;20050;-51
2022/03/19 07:52:11;;;;;;;20.77;13.73;;;;;;;;;;4969926;28;20078;-51
2022/03/19 07:54:37;;;;;;;20.92;13.70;;;;;;;;;;4977100;28;20031;-48
2022/03/19 07:57:07;;;;;;;20.17;13.38;;;;;;;;;;4988720;28;20109;-51
2022/03/19 07:59:34;;;;;;;20.83;13.88;;;;;;;;;;4988185;28;20030;-48
2022/03/19 08:02:00;;;;;;;21.85;14.25;;;;;;;;;;4988746;28;20029;-51
2022/03/19 08:04:26;;;;;;;20.45;13.38;;;;;;;;;;4988702;28;20033;-50
2022/03/19 08:06:53;;;;;;;21.73;13.65;;;;;;;;;;4972743;28;20480;-50
2022/03/19 08:09:20;;;;;;;20.25;13.40;;;;;;;;;;4969262;28;20034;-48
2022/03/19 08:11:47;;;;;;;17.08;11.88;;;;;;;;;;4974457;28;20026;-51
2022/03/19 08:14:15;;;;;;;16.70;10.77;;;;;;;;;;4982051;28;20041;-49
2022/03/19 08:16:41;;;;;;;17.92;12.18;;;;;;;;;;4988581;28;20030;-51
2022/03/19 08:19:08;;;;;;;17.95;11.13;;;;;;;;;;4988530;28;20049;-51
2022/03/19 08:21:34;;;;;;;18.42;11.90;;;;;;;;;;4987564;28;20038;-48
2022/03/19 08:24:00;;;;;;;15.38;10.40;;;;;;;;;;4988699;28;20077;-50
2022/03/19 08:26:26;;;;;;;15.07;10.38;;;;;;;;;;4988223;28;20080;-51
2022/03/19 08:28:53;;;;;;;14.98;10.00;;;;;;;;;;4989518;28;20034;-52
2022/03/19 08:31:19;;;;;;;15.65;10.32;;;;;;;;;;4987380;28;20030;-52
2022/03/19 08:33:45;;;;;;;15.18;10.40;;;;;;;;;;4987797;28;20103;-48
2022/03/19 08:36:12;;;;;;;14.35;9.82;;;;;;;;;;4988442;28;20061;-49
2022/03/19 08:41:23;;;;;;;15.38;10.35;;;;;;;;;;4987589;28;20660;-51
2022/03/19 08:43:49;;;;;;;14.45;10.13;;;;;;;;;;4985183;28;20023;-51
2022/03/19 08:46:16;;;;;;;16.42;10.45;;;;;;;;;;4977613;28;20133;-49
2022/03/19 08:48:42;;;;;;;13.60;9.45;;;;;;;;;;4975016;28;20110;-48
2022/03/19 08:53:52;;;;;;;11.98;8.43;;;;;;;;;;4988298;28;20048;-48
2022/03/19 08:56:18;;;;;;;14.32;9.13;;;;;;;;;;4986410;28;20486;-48
2022/03/19 08:58:44;;;;;;;12.88;8.48;;;;;;;;;;4988249;28;20693;-50
2022/03/19 09:01:11;;;;;;;11.95;8.27;;;;;;;;;;4987280;28;20054;-49
2022/03/19 09:03:37;;;;;;;10.43;7.13;;;;;;;;;;4981591;28;21856;-49
2022/03/19 09:06:03;;;;;;;10.23;7.20;;;;;;;;;;4982630;28;20058;-51
2022/03/19 09:08:29;;;;;;;8.90;6.38;;;;;;;;;;4983692;28;20033;-51
2022/03/19 09:11:02;;;;;;;10.48;7.68;;;;;;;;;;5063377;28;20452;-48
2022/03/19 09:13:28;;;;;;;9.45;6.93;;;;;;;;;;5059637;28;20055;-48
2022/03/19 09:15:54;;;;;;;10.63;6.95;;;;;;;;;;5042954;28;20057;-50
2022/03/19 09:18:21;;;;;;;10.40;6.88;;;;;;;;;;5046234;28;20033;-52
2022/03/19 09:20:47;;;;;;;8.60;6.18;;;;;;;;;;5062471;28;20021;-51
2022/03/19 09:23:14;;;;;;;10.40;7.00;;;;;;;;;;5062463;28;20074;-49
2022/03/19 09:25:41;;;;;;;9.27;6.82;;;;;;;;;;5060608;28;20021;-51
2022/03/19 09:28:08;;;;;;;10.23;6.88;;;;;;;;;;5061413;28;20082;-52
2022/03/19 09:30:34;;;;;;;9.27;6.45;;;;;;;;;;5041712;28;20144;-52
2022/03/19 09:33:00;;;;;;;9.20;6.45;;;;;;;;;;5046148;28;20028;-49
2022/03/19 09:35:26;;;;;;;10.40;7.70;;;;;;;;;;5061358;28;20024;-50
2022/03/19 09:37:52;;;;;;;9.02;6.20;;;;;;;;;;5061577;28;20423;-49
2022/03/19 09:40:19;;;;;;;8.95;6.55;;;;;;;;;;5061218;28;20108;-52
2022/03/19 09:42:49;;;;;;;11.07;7.47;;;;;;;;;;5062123;28;20409;-49
2022/03/19 09:45:18;;;;;;;9.13;6.30;;;;;;;;;;5060166;28;20347;-50
2022/03/19 09:47:44;;;;;;;9.48;6.75;;;;;;;;;;5044944;28;20033;-50
2022/03/19 09:50:10;;;;;;;9.00;6.75;;;;;;;;;;5055760;28;20121;-49
2022/03/19 09:52:37;;;;;;;10.02;6.47;;;;;;;;;;5060546;28;20025;-49
2022/03/19 09:55:04;;;;;;;9.18;6.68;;;;;;;;;;5060899;28;20028;-49
2022/03/19 09:57:30;;;;;;;9.57;6.43;;;;;;;;;;5060245;28;20613;-51
2022/03/19 09:59:56;;;;;;;8.63;5.78;;;;;;;;;;5061065;28;20017;-52
2022/03/19 10:02:22;;;;;;;7.28;5.75;;;;;;;;;;5060733;28;20488;-51
2022/03/19 10:04:52;;;;;;;8.95;5.88;;;;;;;;;;5061447;28;20033;-51
2022/03/19 10:10:08;;;;;;;8.90;6.28;;;;;;;;;;5060250;28;20067;-49
2022/03/19 10:12:34;;;;;;;9.63;6.63;;;;;;;;;;5057517;28;20103;-48
2022/03/19 10:15:01;;;;;;;9.95;6.85;;;;;;;;;;5059554;28;20100;-48
2022/03/19 10:17:29;;;;;;;9.63;6.70;;;;;;;;;;5056766;28;20217;-48
2022/03/19 10:20:06;;;;;;;12.60;8.73;;;;;;;;;;5061387;28;20070;-49
2022/03/19 10:22:32;;;;;;;14.93;9.70;;;;;;;;;;5044009;28;20029;-48
2022/03/19 10:25:03;;;;;;;14.35;9.80;;;;;;;;;;5042628;28;20120;-49
2022/03/19 10:27:37;;;;;;;11.68;8.25;;;;;;;;;;5048362;28;20029;-48
2022/03/19 10:30:03;;;;;;;12.10;8.30;;;;;;;;;;5048032;28;20033;-49
2022/03/19 10:32:30;;;;;;;11.57;8.02;;;;;;;;;;5048122;28;20107;-48
2022/03/19 10:34:56;;;;;;;13.13;8.05;;;;;;;;;;5048503;28;20025;-52
2022/03/19 10:37:35;;;;;;;10.60;7.80;;;;;;;;;;5048218;28;20039;-49
2022/03/19 10:40:01;;;;;;;12.98;8.55;;;;;;;;;;5048184;28;20028;-51
2022/03/19 10:42:34;;;;;;;10.38;7.72;;;;;;;;;;5048088;28;20135;-52
2022/03/19 10:45:00;;;;;;;11.40;7.57;;;;;;;;;;5048476;28;20389;-51
2022/03/19 10:47:26;;;;;;;10.52;6.80;;;;;;;;;;5047807;28;20036;-52
2022/03/19 10:49:59;;;;;;;14.13;9.65;;;;;;;;;;5048124;28;20033;-52
2022/03/19 10:52:26;;;;;;;18.63;11.50;;;;;;;;;;5048598;28;20028;-50
2022/03/19 10:54:54;;;;;;;17.67;11.65;;;;;;;;;;5047298;28;20074;-50
2022/03/19 10:57:20;;;;;;;11.98;9.02;;;;;;;;;;5048857;28;20120;-52
2022/03/19 10:59:46;;;;;;;12.55;8.55;;;;;;;;;;5047815;28;20032;-50
2022/03/19 11:02:16;;;;;;;13.90;9.38;;;;;;;;;;5048295;28;20384;-51
2022/03/19 11:04:43;;;;;;;12.68;8.40;;;;;;;;;;5047735;28;20029;-49
2022/03/19 11:07:10;;;;;;;17.20;11.73;;;;;;;;;;5047473;28;20116;-48
2022/03/19 11:09:38;;;;;;;13.98;10.38;;;;;;;;;;5041848;28;20040;-53
2022/03/19 11:12:07;;;;;;;14.43;10.27;;;;;;;;;;5044490;28;20028;-49
2022/03/19 11:14:34;;;;;;;15.25;10.35;;;;;;;;;;5058369;28;20020;-49
2022/03/19 11:17:28;;;;;;;13.20;9.88;;;;;;;;;;5049141;28;20133;-51
2022/03/19 11:20:02;;;;;;;13.45;10.15;;;;;;;;;;5042776;28;20029;-51
2022/03/19 11:22:39;;;;;;;13.50;9.02;;;;;;;;;;5040540;28;20033;-52
2022/03/19 11:25:16;;;;;;;14.35;10.05;;;;;;;;;;5043940;28;20489;-50
2022/03/19 11:27:44;;;;;;;13.70;10.02;;;;;;;;;;5048675;28;20091;-51
2022/03/19 11:30:19;;;;;;;12.57;9.32;;;;;;;;;;5047306;28;20067;-51
2022/03/19 11:33:04;;;;;;;12.02;8.95;;;;;;;;;;5047438;28;20112;-52
2022/03/19 11:35:30;;;;;;;15.40;10.98;;;;;;;;;;5047171;28;20021;-52
2022/03/19 11:38:01;;;;;;;18.75;13.18;;;;;;;;;;5047313;28;20033;-51
2022/03/19 11:40:29;;;;;;;19.95;13.90;;;;;;;;;;5046954;28;20522;-50
2022/03/19 11:43:01;;;;;;;15.60;11.52;;;;;;;;;;5047089;28;20025;-51
2022/03/19 11:45:28;;;;;;;15.60;11.45;;;;;;;;;;5044014;28;20124;-52
2022/03/19 11:47:54;;;;;;;16.67;12.13;;;;;;;;;;5031578;28;20040;-52
2022/03/19 11:50:24;;;;;;;20.48;14.80;;;;;;;;;;5032437;28;20031;-53
2022/03/19 11:52:50;;;;;;;21.23;15.15;;;;;;;;;;5044091;28;20036;-52
2022/03/19 11:55:20;;;;;;;17.23;12.68;;;;;;;;;;5029695;28;20025;-52
2022/03/19 11:57:46;;;;;;;18.83;12.48;;;;;;;;;;5047784;28;20484;-53
2022/03/19 12:00:20;;;;;;;15.95;11.20;;;;;;;;;;5048044;28;20082;-52
2022/03/19 12:03:04;;;;;;;16.23;11.55;;;;;;;;;;5048608;28;20057;-53
2022/03/19 12:05:31;;;;;;;16.80;11.95;;;;;;;;;;5030930;28;20104;-52
2022/03/19 12:08:04;;;;;;;13.63;10.25;;;;;;;;;;5039588;28;20503;-50
2022/03/19 12:10:38;;;;;;;13.20;9.52;;;;;;;;;;5047155;28;20511;-53
2022/03/19 12:13:21;;;;;;;12.52;9.27;;;;;;;;;;5047977;28;20039;-52
2022/03/19 12:15:48;;;;;;;12.97;9.63;;;;;;;;;;5044733;28;20428;-51
2022/03/19 12:18:24;;;;;;;13.10;9.30;;;;;;;;;;5028387;28;20275;-52
2022/03/19 12:20:54;;;;;;;11.18;8.20;;;;;;;;;;5027895;28;20037;-52
2022/03/19 12:23:20;;;;;;;14.75;10.20;;;;;;;;;;5032116;28;20427;-53
2022/03/19 12:25:54;;;;;;;17.73;11.93;;;;;;;;;;5040734;28;20047;-49
2022/03/19 12:28:20;;;;;;;15.77;11.20;;;;;;;;;;5027581;28;20033;-50
2022/03/19 12:30:46;;;;;;;15.00;10.40;;;;;;;;;;5028034;28;20498;-51
2022/03/19 12:33:12;;;;;;;12.73;9.52;;;;;;;;;;5040177;28;20021;-52
2022/03/19 12:35:39;;;;;;;15.88;10.07;;;;;;;;;;5047399;28;20119;-51
2022/03/19 12:38:05;;;;;;;13.43;10.10;;;;;;;;;;5047610;28;20021;-52
2022/03/19 12:43:18;;;;;;;13.18;9.95;;;;;;;;;;5036593;28;20125;-52
2022/03/19 12:45:47;;;;;;;16.77;12.10;;;;;;;;;;5027430;28;20586;-53
2022/03/19 12:48:14;;;;;;;15.57;10.95;;;;;;;;;;5027503;28;20017;-52
2022/03/19 12:50:47;;;;;;;16.33;11.40;;;;;;;;;;5027122;28;20033;-52
2022/03/19 12:53:13;;;;;;;13.68;10.65;;;;;;;;;;5030237;28;20021;-51
2022/03/19 12:55:39;;;;;;;13.70;9.27;;;;;;;;;;5045643;28;20105;-51
2022/03/19 12:58:05;;;;;;;12.55;9.20;;;;;;;;;;5045596;28;20029;-50
2022/03/19 13:00:31;;;;;;;11.93;9.32;;;;;;;;;;5046673;28;20083;-51
2022/03/19 13:02:58;;;;;;;10.82;8.45;;;;;;;;;;5046771;28;20599;-51
2022/03/19 13:05:24;;;;;;;10.20;7.95;;;;;;;;;;5045272;28;20033;-53
2022/03/19 13:08:10;;;;;;;10.38;8.00;;;;;;;;;;5044434;28;20032;-52
2022/03/19 13:10:46;;;;;;;11.40;8.80;;;;;;;;;;5046497;28;20090;-53
2022/03/19 13:13:13;;;;;;;10.88;8.25;;;;;;;;;;5047260;28;20052;-53
2022/03/19 13:15:52;;;;;;;12.20;8.52;;;;;;;;;;5044640;28;20116;-52
2022/03/19 13:18:37;;;;;;;10.88;7.93;;;;;;;;;;5046712;28;20063;-53
2022/03/19 13:21:03;;;;;;;;;;;;;;;;;;5047218;28;20037;-50
2022/03/19 13:23:30;;;;;;;10.32;7.75;;;;;;;;;;5046528;28;19909;-53
2022/03/19 13:25:56;;;;;;;9.75;7.50;;;;;;;;;;5043364;28;20048;-53
2022/03/19 13:28:23;;;;;;;14.00;8.93;;;;;;;;;;5041523;28;20388;-53
2022/03/19 13:30:52;;;;;;;11.30;8.25;;;;;;;;;;5046423;28;20032;-51
2022/03/19 13:33:18;;;;;;;13.80;10.32;;;;;;;;;;5046807;28;20025;-53
2022/03/19 13:35:47;;;;;;;13.48;8.77;;;;;;;;;;5029502;28;20717;-52
2022/03/19 13:38:14;;;;;;;12.52;9.75;;;;;;;;;;5027722;28;20108;-53
2022/03/19 13:40:41;;;;;;;13.05;9.23;;;;;;;;;;5026392;28;20082;-53
2022/03/19 13:43:07;;;;;;;10.35;8.35;;;;;;;;;;5026895;28;20385;-50
2022/03/19 13:45:34;;;;;;;11.60;7.97;;;;;;;;;;5036444;28;20083;-53
2022/03/19 13:48:04;;;;;;;11.48;7.78;;;;;;;;;;5038441;28;20037;-53
2022/03/19 13:50:30;;;;;;;9.40;7.30;;;;;;;;;;5043824;28;20037;-53
2022/03/19 13:52:59;;;;;;;10.05;7.45;;;;;;;;;;5046190;28;20051;-53
2022/03/19 13:55:28;;;;;;;9.15;6.90;;;;;;;;;;5031373;28;20033;-52
2022/03/19 13:58:04;;;;;;;8.52;6.93;;;;;;;;;;5030765;28;20033;-53
2022/03/19 14:00:38;;;;;;;9.57;7.13;;;;;;;;;;5029687;28;20040;-53
2022/03/19 14:03:04;;;;;;;8.60;6.47;;;;;;;;;;5030027;28;20896;-53
2022/03/19 14:05:32;;;;;;;8.75;6.43;;;;;;;;;;5032028;28;20036;-51
2022/03/19 14:08:01;;;;;;;8.80;6.93;;;;;;;;;;5049108;28;20025;-53
2022/03/19 14:10:37;;;;;;;10.93;7.05;;;;;;;;;;5049769;28;20025;-53
2022/03/19 14:13:17;;;;;;;11.85;6.97;;;;;;;;;;5049845;28;20044;-54
2022/03/19 14:15:48;;;;;;;9.50;7.40;;;;;;;;;;5050146;28;20021;-54
2022/03/19 14:18:23;;;;;;;8.75;6.95;;;;;;;;;;5049268;28;20041;-53
2022/03/19 14:20:49;;;;;;;9.13;7.15;;;;;;;;;;5049940;28;20021;-52
2022/03/19 14:23:16;;;;;;;9.02;7.20;;;;;;;;;;5048991;28;20159;-53
2022/03/19 14:25:43;;;;;;;9.90;7.30;;;;;;;;;;5049659;28;20029;-53
2022/03/19 14:28:10;;;;;;;8.05;6.30;;;;;;;;;;5036125;28;20459;-53
2022/03/19 14:30:37;;;;;;;9.57;7.18;;;;;;;;;;5049346;28;20021;-51
2022/03/19 14:33:04;;;;;;;9.15;6.50;;;;;;;;;;5037902;28;20029;-53
2022/03/19 14:35:43;;;;;;;9.25;6.85;;;;;;;;;;5028724;28;20036;-54
2022/03/19 14:38:10;;;;;;;8.52;6.72;;;;;;;;;;5028898;28;20039;-53
2022/03/19 14:40:36;;;;;;;8.82;6.63;;;;;;;;;;5045753;28;20094;-54
2022/03/19 14:43:03;;;;;;;9.13;7.20;;;;;;;;;;5046069;28;20033;-50
2022/03/19 14:45:29;;;;;;;10.43;7.68;;;;;;;;;;5045824;28;20548;-52
2022/03/19 14:47:55;;;;;;;9.80;7.30;;;;;;;;;;5048002;28;20037;-52
2022/03/19 14:50:21;;;;;;;10.23;7.20;;;;;;;;;;5047554;28;20025;-51